sensor_id;sensor_type;location;lat;lon;timestamp;P1;P2;P0
54021;PMS7003;39936;51.058;17.220;2022-07-23T00:01:01;35;30;21
54021;PMS7003;39936;51.058;17.220;2022-07-23T00:04:44;36;33;22
54021;PMS7003;39936;51.058;17.220;2022-07-23T00:08:15;34;29;21
54021;PMS7003;39936;51.058;17.220;2022-07-23T00:11:58;36;29;20
54021;PMS7003;39936;51.058;17.220;2022-07-23T00:15:18;35;31;20
54021;PMS7003;39936;51.058;17.220;2022-07-23T00:18:33;39;31;20
54021;PMS7003;39936;51.058;17.220;2022-07-23T00:21:50;32;27;19
54021;PMS7003;39936;51.058;17.220;2022-07-23T00:25:06;36;33;22
54021;PMS7003;39936;51.058;17.220;2022-07-23T00:28:37;33;31;21
54021;PMS7003;39936;51.058;17.220;2022-07-23T00:32:09;31;29;19
54021;PMS7003;39936;51.058;17.220;2022-07-23T00:35:41;34;29;21
54021;PMS7003;39936;51.058;17.220;2022-07-23T00:38:57;34;29;20
54021;PMS7003;39936;51.058;17.220;2022-07-23T00:42:11;35;29;20
54021;PMS7003;39936;51.058;17.220;2022-07-23T00:45:26;34;32;22
54021;PMS7003;39936;51.058;17.220;2022-07-23T00:49:37;37;30;21
54021;PMS7003;39936;51.058;17.220;2022-07-23T00:53:07;34;29;20
54021;PMS7003;39936;51.058;17.220;2022-07-23T00:56:24;37;30;20
54021;PMS7003;39936;51.058;17.220;2022-07-23T00:59:35;34;27;20
54021;PMS7003;39936;51.058;17.220;2022-07-23T01:03:16;34;29;20
54021;PMS7003;39936;51.058;17.220;2022-07-23T01:06:56;39;32;21
54021;PMS7003;39936;51.058;17.220;2022-07-23T01:10:28;42;31;20
54021;PMS7003;39936;51.058;17.220;2022-07-23T01:19:29;36;32;22
54021;PMS7003;39936;51.058;17.220;2022-07-23T01:23:03;39;33;21
54021;PMS7003;39936;51.058;17.220;2022-07-23T01:26:37;43;36;24
54021;PMS7003;39936;51.058;17.220;2022-07-23T01:30:23;43;35;22
54021;PMS7003;39936;51.058;17.220;2022-07-23T01:33:33;40;35;22
54021;PMS7003;39936;51.058;17.220;2022-07-23T01:36:48;47;39;26
54021;PMS7003;39936;51.058;17.220;2022-07-23T01:44:21;48;39;25
54021;PMS7003;39936;51.058;17.220;2022-07-23T01:48:02;45;35;23
54021;PMS7003;39936;51.058;17.220;2022-07-23T01:51:27;44;36;23
54021;PMS7003;39936;51.058;17.220;2022-07-23T01:54:49;46;35;25
54021;PMS7003;39936;51.058;17.220;2022-07-23T01:58:03;42;34;23
54021;PMS7003;39936;51.058;17.220;2022-07-23T02:01:43;47;38;26
54021;PMS7003;39936;51.058;17.220;2022-07-23T02:05:35;44;36;23
54021;PMS7003;39936;51.058;17.220;2022-07-23T02:08:55;44;36;24
54021;PMS7003;39936;51.058;17.220;2022-07-23T02:12:15;48;39;25
54021;PMS7003;39936;51.058;17.220;2022-07-23T02:15:43;45;36;23
54021;PMS7003;39936;51.058;17.220;2022-07-23T02:19:03;47;39;26
54021;PMS7003;39936;51.058;17.220;2022-07-23T02:22:18;43;36;24
54021;PMS7003;39936;51.058;17.220;2022-07-23T02:25:41;46;36;24
54021;PMS7003;39936;51.058;17.220;2022-07-23T02:29:39;42;35;23
54021;PMS7003;39936;51.058;17.220;2022-07-23T02:33:06;45;36;23
54021;PMS7003;39936;51.058;17.220;2022-07-23T02:36:20;40;35;24
54021;PMS7003;39936;51.058;17.220;2022-07-23T02:39:34;42;35;23
54021;PMS7003;39936;51.058;17.220;2022-07-23T02:43:04;42;34;24
54021;PMS7003;39936;51.058;17.220;2022-07-23T02:46:37;38;34;23
54021;PMS7003;39936;51.058;17.220;2022-07-23T02:49:57;44;36;23
54021;PMS7003;39936;51.058;17.220;2022-07-23T02:53:10;39;33;22
54021;PMS7003;39936;51.058;17.220;2022-07-23T02:56:49;43;35;24
54021;PMS7003;39936;51.058;17.220;2022-07-23T03:00:52;43;35;23
54021;PMS7003;39936;51.058;17.220;2022-07-23T03:04:35;45;35;23
54021;PMS7003;39936;51.058;17.220;2022-07-23T03:08:02;41;34;23
54021;PMS7003;39936;51.058;17.220;2022-07-23T03:11:20;39;32;21
54021;PMS7003;39936;51.058;17.220;2022-07-23T03:15:34;41;34;24
54021;PMS7003;39936;51.058;17.220;2022-07-23T03:19:24;43;34;22
54021;PMS7003;39936;51.058;17.220;2022-07-23T03:23:05;39;33;22
54021;PMS7003;39936;51.058;17.220;2022-07-23T03:26:25;45;34;24
54021;PMS7003;39936;51.058;17.220;2022-07-23T03:30:04;44;36;23
54021;PMS7003;39936;51.058;17.220;2022-07-23T03:33:38;44;36;25
54021;PMS7003;39936;51.058;17.220;2022-07-23T03:37:14;37;32;22
54021;PMS7003;39936;51.058;17.220;2022-07-23T03:40:30;38;33;23
54021;PMS7003;39936;51.058;17.220;2022-07-23T03:44:45;37;31;22
54021;PMS7003;39936;51.058;17.220;2022-07-23T03:48:20;45;36;25
54021;PMS7003;39936;51.058;17.220;2022-07-23T03:52:06;39;33;23
54021;PMS7003;39936;51.058;17.220;2022-07-23T03:55:31;37;31;21
54021;PMS7003;39936;51.058;17.220;2022-07-23T03:58:40;37;33;23
54021;PMS7003;39936;51.058;17.220;2022-07-23T04:02:15;45;34;23
54021;PMS7003;39936;51.058;17.220;2022-07-23T04:06:11;40;34;22
54021;PMS7003;39936;51.058;17.220;2022-07-23T04:09:52;40;34;23
54021;PMS7003;39936;51.058;17.220;2022-07-23T04:13:35;35;31;22
54021;PMS7003;39936;51.058;17.220;2022-07-23T04:17:08;44;34;23
54021;PMS7003;39936;51.058;17.220;2022-07-23T04:20:22;36;33;21
54021;PMS7003;39936;51.058;17.220;2022-07-23T04:24:14;39;31;21
54021;PMS7003;39936;51.058;17.220;2022-07-23T04:27:59;34;31;21
54021;PMS7003;39936;51.058;17.220;2022-07-23T04:31:57;37;31;21
54021;PMS7003;39936;51.058;17.220;2022-07-23T04:35:46;38;31;21
54021;PMS7003;39936;51.058;17.220;2022-07-23T04:38:59;35;31;21
54021;PMS7003;39936;51.058;17.220;2022-07-23T04:42:59;38;30;20
54021;PMS7003;39936;51.058;17.220;2022-07-23T04:46:43;37;30;21
54021;PMS7003;39936;51.058;17.220;2022-07-23T04:50:22;33;28;20
54021;PMS7003;39936;51.058;17.220;2022-07-23T04:53:33;32;30;21
54021;PMS7003;39936;51.058;17.220;2022-07-23T04:57:58;32;28;19
54021;PMS7003;39936;51.058;17.220;2022-07-23T05:01:34;33;29;20
54021;PMS7003;39936;51.058;17.220;2022-07-23T05:05:09;38;31;20
54021;PMS7003;39936;51.058;17.220;2022-07-23T05:09:28;42;36;24
54021;PMS7003;39936;51.058;17.220;2022-07-23T05:13:06;39;34;22
54021;PMS7003;39936;51.058;17.220;2022-07-23T05:16:38;38;31;21
54021;PMS7003;39936;51.058;17.220;2022-07-23T05:20:19;38;31;21
54021;PMS7003;39936;51.058;17.220;2022-07-23T05:23:31;31;28;20
54021;PMS7003;39936;51.058;17.220;2022-07-23T05:26:56;31;28;19
54021;PMS7003;39936;51.058;17.220;2022-07-23T05:30:10;32;27;18
54021;PMS7003;39936;51.058;17.220;2022-07-23T05:34:04;31;29;20
54021;PMS7003;39936;51.058;17.220;2022-07-23T05:37:12;32;29;20
54021;PMS7003;39936;51.058;17.220;2022-07-23T05:40:26;32;29;20
54021;PMS7003;39936;51.058;17.220;2022-07-23T05:44:37;31;28;19
54021;PMS7003;39936;51.058;17.220;2022-07-23T05:47:49;25;25;19
54021;PMS7003;39936;51.058;17.220;2022-07-23T05:51:42;25;25;17
54021;PMS7003;39936;51.058;17.220;2022-07-23T05:55:49;26;24;17
54021;PMS7003;39936;51.058;17.220;2022-07-23T05:59:22;26;23;17
54021;PMS7003;39936;51.058;17.220;2022-07-23T06:03:27;26;25;17
54021;PMS7003;39936;51.058;17.220;2022-07-23T06:07:24;23;21;16
54021;PMS7003;39936;51.058;17.220;2022-07-23T06:15:07;28;25;18
54021;PMS7003;39936;51.058;17.220;2022-07-23T06:20:44;30;25;18
54021;PMS7003;39936;51.058;17.220;2022-07-23T06:24:57;27;24;16
54021;PMS7003;39936;51.058;17.220;2022-07-23T06:29:13;25;23;17
54021;PMS7003;39936;51.058;17.220;2022-07-23T06:32:23;26;24;16
54021;PMS7003;39936;51.058;17.220;2022-07-23T06:36:27;30;27;18
54021;PMS7003;39936;51.058;17.220;2022-07-23T06:39:57;23;23;18
54021;PMS7003;39936;51.058;17.220;2022-07-23T06:43:10;28;26;18
54021;PMS7003;39936;51.058;17.220;2022-07-23T06:50:40;30;27;19
54021;PMS7003;39936;51.058;17.220;2022-07-23T06:54:16;27;26;17
54021;PMS7003;39936;51.058;17.220;2022-07-23T06:58:37;24;22;15
54021;PMS7003;39936;51.058;17.220;2022-07-23T07:02:19;25;24;16
54021;PMS7003;39936;51.058;17.220;2022-07-23T07:05:34;27;24;18
54021;PMS7003;39936;51.058;17.220;2022-07-23T07:10:10;24;22;16
54021;PMS7003;39936;51.058;17.220;2022-07-23T07:17:02;29;25;19
54021;PMS7003;39936;51.058;17.220;2022-07-23T07:20:54;25;22;17
54021;PMS7003;39936;51.058;17.220;2022-07-23T07:24:56;27;25;18
54021;PMS7003;39936;51.058;17.220;2022-07-23T07:28:26;24;23;16
54021;PMS7003;39936;51.058;17.220;2022-07-23T07:32:11;27;23;16
54021;PMS7003;39936;51.058;17.220;2022-07-23T07:35:55;25;23;17
54021;PMS7003;39936;51.058;17.220;2022-07-23T07:39:04;27;24;18
54021;PMS7003;39936;51.058;17.220;2022-07-23T07:42:58;28;26;18
54021;PMS7003;39936;51.058;17.220;2022-07-23T07:46:35;26;25;16
54021;PMS7003;39936;51.058;17.220;2022-07-23T07:50:08;31;30;21
54021;PMS7003;39936;51.058;17.220;2022-07-23T07:53:39;26;25;18
54021;PMS7003;39936;51.058;17.220;2022-07-23T07:58:30;25;24;18
54021;PMS7003;39936;51.058;17.220;2022-07-23T08:02:55;30;25;18
54021;PMS7003;39936;51.058;17.220;2022-07-23T08:11:02;26;25;17
54021;PMS7003;39936;51.058;17.220;2022-07-23T08:14:51;27;25;17
54021;PMS7003;39936;51.058;17.220;2022-07-23T08:18:07;26;25;17
54021;PMS7003;39936;51.058;17.220;2022-07-23T08:22:08;33;29;21
54021;PMS7003;39936;51.058;17.220;2022-07-23T08:26:57;31;27;19
54021;PMS7003;39936;51.058;17.220;2022-07-23T08:30:40;29;28;19
54021;PMS7003;39936;51.058;17.220;2022-07-23T08:33:58;32;28;20
54021;PMS7003;39936;51.058;17.220;2022-07-23T08:37:40;30;28;20
54021;PMS7003;39936;51.058;17.220;2022-07-23T08:40:56;29;28;20
54021;PMS7003;39936;51.058;17.220;2022-07-23T08:44:16;30;26;19
54021;PMS7003;39936;51.058;17.220;2022-07-23T08:47:45;32;29;20
54021;PMS7003;39936;51.058;17.220;2022-07-23T08:51:15;33;31;20
54021;PMS7003;39936;51.058;17.220;2022-07-23T08:58:27;31;29;21
54021;PMS7003;39936;51.058;17.220;2022-07-23T09:02:03;29;27;19
54021;PMS7003;39936;51.058;17.220;2022-07-23T09:05:25;35;30;19
54021;PMS7003;39936;51.058;17.220;2022-07-23T09:08:54;33;30;21
54021;PMS7003;39936;51.058;17.220;2022-07-23T09:12:17;28;26;19
54021;PMS7003;39936;51.058;17.220;2022-07-23T09:15:29;31;27;20
54021;PMS7003;39936;51.058;17.220;2022-07-23T09:22:53;28;26;19
54021;PMS7003;39936;51.058;17.220;2022-07-23T09:26:47;27;26;19
54021;PMS7003;39936;51.058;17.220;2022-07-23T09:34:15;30;28;19
54021;PMS7003;39936;51.058;17.220;2022-07-23T09:39:54;29;27;20
54021;PMS7003;39936;51.058;17.220;2022-07-23T09:43:26;29;27;20
54021;PMS7003;39936;51.058;17.220;2022-07-23T09:47:27;26;25;18
54021;PMS7003;39936;51.058;17.220;2022-07-23T10:03:54;23;23;16
54021;PMS7003;39936;51.058;17.220;2022-07-23T10:11:17;19;19;15
54021;PMS7003;39936;51.058;17.220;2022-07-23T10:14:35;24;21;16
54021;PMS7003;39936;51.058;17.220;2022-07-23T10:18:27;20;19;13
54021;PMS7003;39936;51.058;17.220;2022-07-23T10:38:26;23;22;15
54021;PMS7003;39936;51.058;17.220;2022-07-23T10:42:15;22;21;15
54021;PMS7003;39936;51.058;17.220;2022-07-23T10:49:45;25;24;16
54021;PMS7003;39936;51.058;17.220;2022-07-23T11:00:16;20;16;12
54021;PMS7003;39936;51.058;17.220;2022-07-23T11:03:56;25;21;13
54021;PMS7003;39936;51.058;17.220;2022-07-23T11:11:45;31;26;19
54021;PMS7003;39936;51.058;17.220;2022-07-23T11:15:10;31;27;17
54021;PMS7003;39936;51.058;17.220;2022-07-23T11:22:50;27;25;18
54021;PMS7003;39936;51.058;17.220;2022-07-23T11:37:34;29;27;17
54021;PMS7003;39936;51.058;17.220;2022-07-23T11:40:50;29;27;18
54021;PMS7003;39936;51.058;17.220;2022-07-23T11:45:06;32;29;20
54021;PMS7003;39936;51.058;17.220;2022-07-23T11:48:37;31;29;19
54021;PMS7003;39936;51.058;17.220;2022-07-23T11:52:16;30;26;16
54021;PMS7003;39936;51.058;17.220;2022-07-23T11:59:50;60;47;28
54021;PMS7003;39936;51.058;17.220;2022-07-23T12:03:48;31;26;18
54021;PMS7003;39936;51.058;17.220;2022-07-23T12:10:58;35;30;20
54021;PMS7003;39936;51.058;17.220;2022-07-23T12:14:33;35;30;20
54021;PMS7003;39936;51.058;17.220;2022-07-23T12:18:13;35;30;19
54021;PMS7003;39936;51.058;17.220;2022-07-23T12:21:48;36;31;20
54021;PMS7003;39936;51.058;17.220;2022-07-23T12:25:10;31;27;19
54021;PMS7003;39936;51.058;17.220;2022-07-23T12:28:54;30;25;18
54021;PMS7003;39936;51.058;17.220;2022-07-23T12:32:16;28;27;17
54021;PMS7003;39936;51.058;17.220;2022-07-23T12:35:54;31;27;18
54021;PMS7003;39936;51.058;17.220;2022-07-23T12:39:20;31;28;20
54021;PMS7003;39936;51.058;17.220;2022-07-23T12:42:44;31;27;19
54021;PMS7003;39936;51.058;17.220;2022-07-23T12:46:18;22;19;14
54021;PMS7003;39936;51.058;17.220;2022-07-23T12:49:58;27;23;16
54021;PMS7003;39936;51.058;17.220;2022-07-23T13:04:39;22;20;14
54021;PMS7003;39936;51.058;17.220;2022-07-23T13:08:32;19;18;12
54021;PMS7003;39936;51.058;17.220;2022-07-23T13:12:12;19;18;13
54021;PMS7003;39936;51.058;17.220;2022-07-23T13:15:42;21;21;14
54021;PMS7003;39936;51.058;17.220;2022-07-23T13:19:14;20;18;12
54021;PMS7003;39936;51.058;17.220;2022-07-23T13:22:46;18;17;12
54021;PMS7003;39936;51.058;17.220;2022-07-23T13:26:15;18;17;11
54021;PMS7003;39936;51.058;17.220;2022-07-23T13:29:46;19;19;13
54021;PMS7003;39936;51.058;17.220;2022-07-23T13:33:20;17;15;11
54021;PMS7003;39936;51.058;17.220;2022-07-23T13:36:41;21;18;15
54021;PMS7003;39936;51.058;17.220;2022-07-23T13:39:55;30;28;19
54021;PMS7003;39936;51.058;17.220;2022-07-23T13:43:33;31;28;20
54021;PMS7003;39936;51.058;17.220;2022-07-23T13:47:34;18;16;12
54021;PMS7003;39936;51.058;17.220;2022-07-23T13:51:04;40;32;21
54021;PMS7003;39936;51.058;17.220;2022-07-23T13:55:25;22;19;14
54021;PMS7003;39936;51.058;17.220;2022-07-23T13:58:36;21;18;14
54021;PMS7003;39936;51.058;17.220;2022-07-23T14:02:10;19;18;13
54021;PMS7003;39936;51.058;17.220;2022-07-23T14:05:30;19;17;11
54021;PMS7003;39936;51.058;17.220;2022-07-23T14:09:05;19;17;12
54021;PMS7003;39936;51.058;17.220;2022-07-23T14:13:34;22;20;14
54021;PMS7003;39936;51.058;17.220;2022-07-23T14:17:06;21;19;13
54021;PMS7003;39936;51.058;17.220;2022-07-23T14:21:09;17;15;11
54021;PMS7003;39936;51.058;17.220;2022-07-23T14:24:44;22;20;13
54021;PMS7003;39936;51.058;17.220;2022-07-23T14:28:11;25;23;17
54021;PMS7003;39936;51.058;17.220;2022-07-23T14:31:33;28;25;17
54021;PMS7003;39936;51.058;17.220;2022-07-23T14:34:49;27;25;17
54021;PMS7003;39936;51.058;17.220;2022-07-23T14:38:39;26;25;17
54021;PMS7003;39936;51.058;17.220;2022-07-23T14:41:55;28;26;18
54021;PMS7003;39936;51.058;17.220;2022-07-23T14:45:46;27;25;17
54021;PMS7003;39936;51.058;17.220;2022-07-23T14:49:19;29;26;18
54021;PMS7003;39936;51.058;17.220;2022-07-23T14:52:45;25;22;16
54021;PMS7003;39936;51.058;17.220;2022-07-23T14:56:01;27;27;19
54021;PMS7003;39936;51.058;17.220;2022-07-23T14:59:09;26;24;17
54021;PMS7003;39936;51.058;17.220;2022-07-23T15:02:33;28;26;18
54021;PMS7003;39936;51.058;17.220;2022-07-23T15:05:46;27;24;18
54021;PMS7003;39936;51.058;17.220;2022-07-23T15:09:47;31;29;19
54021;PMS7003;39936;51.058;17.220;2022-07-23T15:13:14;31;28;19
54021;PMS7003;39936;51.058;17.220;2022-07-23T15:16:40;30;28;20
54021;PMS7003;39936;51.058;17.220;2022-07-23T15:29:45;32;27;18
54021;PMS7003;39936;51.058;17.220;2022-07-23T15:33:04;32;29;20
54021;PMS7003;39936;51.058;17.220;2022-07-23T15:36:19;30;27;19
54021;PMS7003;39936;51.058;17.220;2022-07-23T15:41:58;31;29;18
54021;PMS7003;39936;51.058;17.220;2022-07-23T15:45:15;30;28;19
54021;PMS7003;39936;51.058;17.220;2022-07-23T15:49:05;34;29;21
54021;PMS7003;39936;51.058;17.220;2022-07-23T15:52:57;32;28;19
54021;PMS7003;39936;51.058;17.220;2022-07-23T15:56:17;38;32;22
54021;PMS7003;39936;51.058;17.220;2022-07-23T15:59:58;34;30;21
54021;PMS7003;39936;51.058;17.220;2022-07-23T16:04:21;35;31;21
54021;PMS7003;39936;51.058;17.220;2022-07-23T16:07:50;31;27;17
54021;PMS7003;39936;51.058;17.220;2022-07-23T16:11:10;31;28;18
54021;PMS7003;39936;51.058;17.220;2022-07-23T16:14:31;24;21;16
54021;PMS7003;39936;51.058;17.220;2022-07-23T16:17:55;33;29;20
54021;PMS7003;39936;51.058;17.220;2022-07-23T16:21:20;31;24;17
54021;PMS7003;39936;51.058;17.220;2022-07-23T16:24:39;28;27;18
54021;PMS7003;39936;51.058;17.220;2022-07-23T16:28:10;38;31;20
54021;PMS7003;39936;51.058;17.220;2022-07-23T16:31:21;34;31;22
54021;PMS7003;39936;51.058;17.220;2022-07-23T16:35:10;46;35;22
54021;PMS7003;39936;51.058;17.220;2022-07-23T16:39:39;40;32;22
54021;PMS7003;39936;51.058;17.220;2022-07-23T16:43:13;39;32;22
54021;PMS7003;39936;51.058;17.220;2022-07-23T16:47:07;39;34;23
54021;PMS7003;39936;51.058;17.220;2022-07-23T16:50:31;37;32;22
54021;PMS7003;39936;51.058;17.220;2022-07-23T16:54:21;39;33;22
54021;PMS7003;39936;51.058;17.220;2022-07-23T16:58:08;40;31;20
54021;PMS7003;39936;51.058;17.220;2022-07-23T17:01:27;42;34;24
54021;PMS7003;39936;51.058;17.220;2022-07-23T17:06:24;38;33;22
54021;PMS7003;39936;51.058;17.220;2022-07-23T17:10:10;36;32;21
54021;PMS7003;39936;51.058;17.220;2022-07-23T17:13:44;37;30;21
54021;PMS7003;39936;51.058;17.220;2022-07-23T17:17:52;30;28;19
54021;PMS7003;39936;51.058;17.220;2022-07-23T17:21:28;32;29;20
54021;PMS7003;39936;51.058;17.220;2022-07-23T17:24:44;33;30;20
54021;PMS7003;39936;51.058;17.220;2022-07-23T17:28:19;31;27;18
54021;PMS7003;39936;51.058;17.220;2022-07-23T17:31:55;33;29;20
54021;PMS7003;39936;51.058;17.220;2022-07-23T17:35:30;34;30;19
54021;PMS7003;39936;51.058;17.220;2022-07-23T17:39:59;29;26;19
54021;PMS7003;39936;51.058;17.220;2022-07-23T17:44:09;35;29;19
54021;PMS7003;39936;51.058;17.220;2022-07-23T17:47:29;27;24;16
54021;PMS7003;39936;51.058;17.220;2022-07-23T17:51:05;30;24;16
54021;PMS7003;39936;51.058;17.220;2022-07-23T17:54:33;30;25;18
54021;PMS7003;39936;51.058;17.220;2022-07-23T17:58:19;25;24;16
54021;PMS7003;39936;51.058;17.220;2022-07-23T18:01:45;25;24;18
54021;PMS7003;39936;51.058;17.220;2022-07-23T18:05:11;31;26;19
54021;PMS7003;39936;51.058;17.220;2022-07-23T18:09:12;31;26;19
54021;PMS7003;39936;51.058;17.220;2022-07-23T18:16:53;27;25;19
54021;PMS7003;39936;51.058;17.220;2022-07-23T18:20:34;25;21;15
54021;PMS7003;39936;51.058;17.220;2022-07-23T18:24:22;25;24;16
54021;PMS7003;39936;51.058;17.220;2022-07-23T18:27:58;22;18;12
54021;PMS7003;39936;51.058;17.220;2022-07-23T18:31:32;18;16;12
54021;PMS7003;39936;51.058;17.220;2022-07-23T18:34:45;19;18;13
54021;PMS7003;39936;51.058;17.220;2022-07-23T18:38:51;26;23;14
54021;PMS7003;39936;51.058;17.220;2022-07-23T18:42:25;26;23;15
54021;PMS7003;39936;51.058;17.220;2022-07-23T18:46:22;17;15;11
54021;PMS7003;39936;51.058;17.220;2022-07-23T18:50:13;27;25;17
54021;PMS7003;39936;51.058;17.220;2022-07-23T18:54:09;21;19;13
54021;PMS7003;39936;51.058;17.220;2022-07-23T18:58:05;18;15;10
54021;PMS7003;39936;51.058;17.220;2022-07-23T19:01:39;21;21;13
54021;PMS7003;39936;51.058;17.220;2022-07-23T19:04:52;24;21;16
54021;PMS7003;39936;51.058;17.220;2022-07-23T19:08:06;23;22;15
54021;PMS7003;39936;51.058;17.220;2022-07-23T19:12:33;24;22;14
54021;PMS7003;39936;51.058;17.220;2022-07-23T19:16:17;21;19;13
54021;PMS7003;39936;51.058;17.220;2022-07-23T19:19:27;26;23;18
54021;PMS7003;39936;51.058;17.220;2022-07-23T19:23:50;27;23;17
54021;PMS7003;39936;51.058;17.220;2022-07-23T19:27:28;26;24;17
54021;PMS7003;39936;51.058;17.220;2022-07-23T19:30:59;24;23;16
54021;PMS7003;39936;51.058;17.220;2022-07-23T19:34:24;28;25;18
54021;PMS7003;39936;51.058;17.220;2022-07-23T19:37:38;21;20;17
54021;PMS7003;39936;51.058;17.220;2022-07-23T19:41:22;26;24;17
54021;PMS7003;39936;51.058;17.220;2022-07-23T19:45:06;27;23;16
54021;PMS7003;39936;51.058;17.220;2022-07-23T19:48:23;30;27;16
54021;PMS7003;39936;51.058;17.220;2022-07-23T19:52:11;30;26;18
54021;PMS7003;39936;51.058;17.220;2022-07-23T19:55:37;26;26;18
54021;PMS7003;39936;51.058;17.220;2022-07-23T19:59:15;26;23;16
54021;PMS7003;39936;51.058;17.220;2022-07-23T20:03:04;30;25;16
54021;PMS7003;39936;51.058;17.220;2022-07-23T20:06:41;29;25;18
54021;PMS7003;39936;51.058;17.220;2022-07-23T20:10:10;31;25;16
54021;PMS7003;39936;51.058;17.220;2022-07-23T20:13:43;29;26;18
54021;PMS7003;39936;51.058;17.220;2022-07-23T20:17:48;29;26;19
54021;PMS7003;39936;51.058;17.220;2022-07-23T20:21:39;28;27;18
54021;PMS7003;39936;51.058;17.220;2022-07-23T20:25:15;29;26;19
54021;PMS7003;39936;51.058;17.220;2022-07-23T20:29:23;30;24;16
54021;PMS7003;39936;51.058;17.220;2022-07-23T20:32:39;30;27;18
54021;PMS7003;39936;51.058;17.220;2022-07-23T20:36:21;27;25;18
54021;PMS7003;39936;51.058;17.220;2022-07-23T20:40:21;33;29;18
54021;PMS7003;39936;51.058;17.220;2022-07-23T20:44:27;30;28;19
54021;PMS7003;39936;51.058;17.220;2022-07-23T20:48:06;28;27;18
54021;PMS7003;39936;51.058;17.220;2022-07-23T20:51:43;32;29;20
54021;PMS7003;39936;51.058;17.220;2022-07-23T20:55:58;31;28;19
54021;PMS7003;39936;51.058;17.220;2022-07-23T21:00:19;31;28;19
54021;PMS7003;39936;51.058;17.220;2022-07-23T21:03:46;29;27;18
54021;PMS7003;39936;51.058;17.220;2022-07-23T21:06:56;29;25;18
54021;PMS7003;39936;51.058;17.220;2022-07-23T21:10:42;25;25;18
54021;PMS7003;39936;51.058;17.220;2022-07-23T21:14:08;30;28;19
54021;PMS7003;39936;51.058;17.220;2022-07-23T21:17:30;27;26;19
54021;PMS7003;39936;51.058;17.220;2022-07-23T21:21:12;31;27;19
54021;PMS7003;39936;51.058;17.220;2022-07-23T21:24:47;29;26;17
54021;PMS7003;39936;51.058;17.220;2022-07-23T21:28:13;28;26;17
54021;PMS7003;39936;51.058;17.220;2022-07-23T21:31:47;34;26;19
54021;PMS7003;39936;51.058;17.220;2022-07-23T21:35:46;28;26;17
54021;PMS7003;39936;51.058;17.220;2022-07-23T21:39:08;30;28;20
54021;PMS7003;39936;51.058;17.220;2022-07-23T21:42:17;28;24;16
54021;PMS7003;39936;51.058;17.220;2022-07-23T21:45:31;29;27;17
54021;PMS7003;39936;51.058;17.220;2022-07-23T21:49:11;32;27;18
54021;PMS7003;39936;51.058;17.220;2022-07-23T21:53:07;31;28;18
54021;PMS7003;39936;51.058;17.220;2022-07-23T21:57:00;28;25;19
54021;PMS7003;39936;51.058;17.220;2022-07-23T22:00:58;32;28;18
54021;PMS7003;39936;51.058;17.220;2022-07-23T22:05:09;30;24;17
54021;PMS7003;39936;51.058;17.220;2022-07-23T22:08:44;27;25;17
54021;PMS7003;39936;51.058;17.220;2022-07-23T22:12:30;26;23;17
54021;PMS7003;39936;51.058;17.220;2022-07-23T22:16:08;25;24;17
54021;PMS7003;39936;51.058;17.220;2022-07-23T22:19:49;27;24;16
54021;PMS7003;39936;51.058;17.220;2022-07-23T22:23:32;28;26;15
54021;PMS7003;39936;51.058;17.220;2022-07-23T22:27:28;29;25;19
54021;PMS7003;39936;51.058;17.220;2022-07-23T22:30:59;27;25;17
54021;PMS7003;39936;51.058;17.220;2022-07-23T22:34:44;32;25;17
54021;PMS7003;39936;51.058;17.220;2022-07-23T22:38:06;29;24;18
54021;PMS7003;39936;51.058;17.220;2022-07-23T22:42:03;28;24;17
54021;PMS7003;39936;51.058;17.220;2022-07-23T22:45:31;28;26;18
54021;PMS7003;39936;51.058;17.220;2022-07-23T22:48:43;29;25;16
54021;PMS7003;39936;51.058;17.220;2022-07-23T22:52:20;28;25;16
54021;PMS7003;39936;51.058;17.220;2022-07-23T22:56:13;32;27;18
54021;PMS7003;39936;51.058;17.220;2022-07-23T22:59:36;33;27;19
54021;PMS7003;39936;51.058;17.220;2022-07-23T23:02:47;30;27;18
54021;PMS7003;39936;51.058;17.220;2022-07-23T23:06:06;35;27;18
54021;PMS7003;39936;51.058;17.220;2022-07-23T23:09:38;27;25;17
54021;PMS7003;39936;51.058;17.220;2022-07-23T23:12:53;30;27;18
54021;PMS7003;39936;51.058;17.220;2022-07-23T23:16:19;32;26;18
54021;PMS7003;39936;51.058;17.220;2022-07-23T23:20:04;33;29;19
54021;PMS7003;39936;51.058;17.220;2022-07-23T23:27:11;30;28;19
54021;PMS7003;39936;51.058;17.220;2022-07-23T23:31:21;33;28;17
54021;PMS7003;39936;51.058;17.220;2022-07-23T23:34:54;30;26;17
54021;PMS7003;39936;51.058;17.220;2022-07-23T23:38:06;27;24;17
54021;PMS7003;39936;51.058;17.220;2022-07-23T23:41:54;30;27;18
54021;PMS7003;39936;51.058;17.220;2022-07-23T23:45:12;23;23;15
54021;PMS7003;39936;51.058;17.220;2022-07-23T23:48:44;26;24;16
54021;PMS7003;39936;51.058;17.220;2022-07-23T23:52:18;26;24;17
54021;PMS7003;39936;51.058;17.220;2022-07-23T23:56:17;26;24;17
